Sacramento, CA (94248)

2:26 AM PDT on August 29, 2016 (GMT -0700)
Mansion Flats | | Change Station

Elev 24 ft 38.58 °N, 121.48 °W | Updated 19 seconds ago

Clear
Clear
62.0 °F
Feels Like 62.0 °F
N
1.7
Wind Variable Wind from SE
Gusts 5.0 mph

Today
High -- | Low -- °F
--% Chance of Precip.
Yesterday
High -- | Low -- °F
Precip. -- in
Pressure 30.02 in
Visibility 10.0 miles
Clouds Clear
Dew Point 55 °F
Humidity 77%
Rainfall 0.00 in
Snow Depth Not available.
6:33 AM 7:39 PM
Waning Crescent, 10% visible
METAR KSAC 290853Z AUTO 15003KT 10SM CLR 15/11 A3002 RMK AO2 SLP165 T01500111 50005
Pressure 30.02 in
Visibility 10.0 miles
Clouds Clear
Dew Point 55 °F
Humidity 77%
Rainfall 0.00 in
Snow Depth Not available.
6:33 AM 7:39 PM
Waning Crescent, 10% visible
METAR KSAC 290853Z AUTO 15003KT 10SM CLR 15/11 A3002 RMK AO2 SLP165 T01500111 50005

10-Day Weather Forecast

Almanac

Astronomy

Aug. 29, 2016 Rise Set
Actual Time
Civil Twilight
Nautical Twilight
Astronomical Twilight
Moon
Length of Visible Light
Length of Day
Tomorrow will be .
, % of the Moon is Illuminated

Today's Extremes

State Highs State Lows

Community

WunderPhotos

Upload Photos

1,935,798 photos uploaded!

WunderBlog® & News

Nearby

Air Quality

  Air Quality AQ Index Pollutant
Not available.

Snow Depth

Station Depth Elevation

Earthquake Activity

City Distance Mag. Time & Date
Minimum magnitude displayed is 2.5.

Coastal Water Temperatures

Place Temperature

Stations

Nearby Weather Stations

Station Location Temp. Windchill Dew Point Humidity Wind Precip. Elev Updated Type
                   

Watches & Warnings

There are currently no watches in effect.